Time;durP1;ratioP1;P1;durP2;ratioP2;P2;SDS_P1;SDS_P2;PMS_P1;PMS_P2;Temp;Humidity;BMP_temperature;BMP_pressure;BME280_temperature;BME280_humidity;BME280_pressure;Samples;Min_cycle;Max_cycle;Signal;HPM_P1;HPM_P2
2022/04/28 00:00:12;;;;;;;17.83;9.32;;;5.10;99.90;;;;;;5057751;28;20040;-69
2022/04/28 00:02:39;;;;;;;18.73;9.18;;;4.80;99.90;;;;;;5126958;27;20048;-69
2022/04/28 00:05:07;;;;;;;23.15;9.63;;;4.80;99.90;;;;;;5082530;28;20044;-69
2022/04/28 00:07:33;;;;;;;17.00;9.05;;;4.90;99.90;;;;;;5061375;28;20655;-69
2022/04/28 00:10:00;;;;;;;22.45;9.82;;;4.80;99.90;;;;;;5116060;27;20044;-69
2022/04/28 00:12:27;;;;;;;18.50;9.35;;;4.90;99.90;;;;;;5078710;28;20493;-69
2022/04/28 00:14:53;;;;;;;16.60;9.68;;;5.00;99.90;;;;;;5079812;28;20048;-70
2022/04/28 00:17:19;;;;;;;20.35;9.50;;;5.00;99.90;;;;;;5083268;28;20052;-69
2022/04/28 00:19:46;;;;;;;20.23;9.40;;;5.10;99.90;;;;;;5079273;28;20044;-70
2022/04/28 00:22:13;;;;;;;18.77;9.02;;;5.20;99.90;;;;;;5120574;27;20153;-69
2022/04/28 00:24:39;;;;;;;17.02;8.43;;;5.20;99.90;;;;;;5086873;28;20052;-69
2022/04/28 00:27:06;;;;;;;23.17;9.43;;;5.40;99.90;;;;;;5065446;28;20049;-72
2022/04/28 00:29:32;;;;;;;16.15;7.88;;;5.40;99.90;;;;;;5101919;28;20090;-69
2022/04/28 00:31:58;;;;;;;14.10;7.50;;;5.40;99.90;;;;;;5084018;28;20692;-70
2022/04/28 00:34:24;;;;;;;16.50;8.02;;;5.50;99.90;;;;;;5092676;28;20120;-70
2022/04/28 00:36:50;;;;;;;12.65;8.45;;;5.50;99.90;;;;;;5092733;28;20057;-68
2022/04/28 00:39:17;;;;;;;13.25;8.18;;;5.60;99.90;;;;;;5085817;28;20131;-67
2022/04/28 00:41:43;;;;;;;15.05;8.40;;;5.70;99.90;;;;;;5064238;28;20067;-67
2022/04/28 00:44:11;;;;;;;15.45;8.10;;;5.70;99.90;;;;;;5078105;28;20040;-67
2022/04/28 00:46:40;;;;;;;16.95;8.48;;;5.80;99.90;;;;;;5086875;28;20048;-68
2022/04/28 00:51:51;;;;;;;11.20;8.25;;;5.80;99.90;;;;;;5087026;28;20089;-67
2022/04/28 00:54:17;;;;;;;14.35;8.60;;;5.80;99.90;;;;;;5083924;28;20091;-67
2022/04/28 00:56:43;;;;;;;13.30;7.47;;;5.90;99.90;;;;;;5082105;28;20044;-68
2022/04/28 00:59:11;;;;;;;15.70;7.72;;;5.90;99.90;;;;;;5081067;28;20110;-67
2022/04/28 01:01:37;;;;;;;16.67;7.75;;;6.10;99.90;;;;;;5110276;27;20036;-70
2022/04/28 01:04:04;;;;;;;13.23;7.00;;;6.10;99.90;;;;;;5080943;28;20048;-68
2022/04/28 01:06:30;;;;;;;15.23;8.05;;;6.20;99.90;;;;;;5074505;28;20083;-67
2022/04/28 01:08:59;;;;;;;13.35;7.38;;;6.30;99.90;;;;;;5077820;28;20048;-68
2022/04/28 01:11:27;;;;;;;16.92;8.32;;;6.20;99.90;;;;;;5090597;28;20041;-68
2022/04/28 01:13:53;;;;;;;13.48;8.57;;;6.20;99.90;;;;;;5070869;28;20055;-69
2022/04/28 01:16:19;;;;;;;13.73;8.00;;;6.20;99.90;;;;;;5101545;28;20460;-68
2022/04/28 01:18:44;;;;;;;16.33;8.93;;;6.10;99.90;;;;;;5097556;28;20130;-68
2022/04/28 01:21:10;;;;;;;13.25;7.82;;;6.20;99.90;;;;;;5093877;28;20518;-68
2022/04/28 01:23:37;;;;;;;17.95;8.52;;;6.20;99.90;;;;;;5098390;28;20045;-69
2022/04/28 01:26:03;;;;;;;18.23;7.90;;;6.30;99.90;;;;;;5082969;28;20044;-68
2022/04/28 01:28:31;;;;;;;15.00;8.23;;;6.30;99.90;;;;;;5097665;28;20105;-69
2022/04/28 01:31:00;;;;;;;14.77;7.80;;;6.30;99.90;;;;;;5092588;28;20437;-69
2022/04/28 01:33:26;;;;;;;14.85;7.68;;;6.40;99.90;;;;;;5075337;28;20147;-70
2022/04/28 01:35:52;;;;;;;14.00;8.05;;;6.30;99.90;;;;;;5094140;28;20080;-69
2022/04/28 01:38:18;;;;;;;17.77;7.78;;;6.30;99.90;;;;;;5078559;28;20086;-69
2022/04/28 01:40:44;;;;;;;16.67;7.80;;;6.30;99.90;;;;;;5071355;28;20116;-69
2022/04/28 01:43:10;;;;;;;13.18;7.10;;;6.40;99.90;;;;;;5091803;28;20055;-68
2022/04/28 01:45:39;;;;;;;16.85;8.02;;;6.40;99.90;;;;;;5084922;28;20048;-70
2022/04/28 01:48:05;;;;;;;15.15;7.07;;;6.40;99.90;;;;;;5095332;28;20047;-69
2022/04/28 01:50:31;;;;;;;15.40;8.05;;;6.50;99.90;;;;;;5073454;28;20066;-69
2022/04/28 01:55:41;;;;;;;14.95;8.07;;;6.60;99.90;;;;;;5122849;27;20048;-69
2022/04/28 01:58:07;;;;;;;12.70;8.10;;;6.60;99.90;;;;;;5092155;28;20043;-70
2022/04/28 02:00:34;;;;;;;13.13;7.70;;;6.60;99.90;;;;;;5099821;28;20056;-69
2022/04/28 02:03:00;;;;;;;11.45;6.82;;;6.60;99.90;;;;;;5088838;28;20080;-69
2022/04/28 02:05:26;;;;;;;14.40;8.13;;;6.60;99.90;;;;;;5080990;28;20044;-69
2022/04/28 02:07:52;;;;;;;12.95;7.07;;;6.70;99.90;;;;;;5092502;28;20052;-68
2022/04/28 02:10:18;;;;;;;12.35;7.45;;;6.70;99.90;;;;;;5097857;28;20055;-70
2022/04/28 02:12:44;;;;;;;15.32;8.07;;;6.70;99.90;;;;;;5071384;28;20083;-69
2022/04/28 02:15:10;;;;;;;13.52;7.53;;;6.70;99.90;;;;;;5061645;28;20046;-69
2022/04/28 02:17:39;;;;;;;17.85;7.97;;;6.70;99.90;;;;;;5065825;28;20048;-69
2022/04/28 02:20:07;;;;;;;16.55;7.80;;;6.70;99.90;;;;;;5082954;28;20097;-69
2022/04/28 02:22:33;;;;;;;12.32;7.57;;;6.70;99.90;;;;;;5113811;27;20044;-69
2022/04/28 02:24:59;;;;;;;11.00;6.70;;;6.60;99.90;;;;;;5077800;28;20094;-70
2022/04/28 02:27:27;;;;;;;13.32;7.25;;;6.70;99.90;;;;;;5080702;28;20120;-69
2022/04/28 02:29:53;;;;;;;15.13;7.70;;;6.70;99.90;;;;;;5068819;28;20059;-69
2022/04/28 02:32:19;;;;;;;14.80;7.78;;;6.70;99.90;;;;;;5080789;28;20063;-69
2022/04/28 02:34:44;;;;;;;15.75;7.60;;;6.70;99.90;;;;;;5087657;28;20443;-69
2022/04/28 02:37:11;;;;;;;12.20;6.93;;;6.70;99.90;;;;;;5078661;28;20106;-70
2022/04/28 02:39:37;;;;;;;15.48;7.68;;;6.80;99.90;;;;;;5078137;28;20051;-71
2022/04/28 02:42:03;;;;;;;15.20;7.72;;;6.80;99.90;;;;;;5084087;28;20052;-68
2022/04/28 02:44:29;;;;;;;11.02;7.45;;;6.80;99.90;;;;;;5080068;28;20048;-70
2022/04/28 02:46:55;;;;;;;13.07;7.25;;;6.80;99.90;;;;;;5081951;28;20477;-69
2022/04/28 02:49:21;;;;;;;14.38;7.07;;;6.90;99.90;;;;;;5081719;28;20048;-70
2022/04/28 02:51:47;;;;;;;12.13;7.43;;;6.90;99.90;;;;;;5111536;27;20047;-69
2022/04/28 02:54:13;;;;;;;14.82;7.90;;;6.90;99.90;;;;;;5080267;28;20048;-70
2022/04/28 02:56:39;;;;;;;13.68;8.43;;;6.90;99.90;;;;;;5081025;28;20044;-69
2022/04/28 02:59:05;;;;;;;14.35;7.32;;;7.00;99.90;;;;;;5083350;28;20044;-69
2022/04/28 03:01:31;;;;;;;20.73;8.68;;;7.00;99.90;;;;;;5064484;28;20051;-69
2022/04/28 03:03:56;;;;;;;16.20;8.55;;;7.00;99.90;;;;;;5072716;28;20157;-69
2022/04/28 03:11:53;;;;;;;17.45;7.35;;;7.00;99.90;;;;;;5080256;28;20071;-70
2022/04/28 03:14:20;;;;;;;14.75;7.78;;;7.00;99.90;;;;;;5079216;28;20051;-69
2022/04/28 03:16:46;;;;;;;15.75;7.72;;;7.00;99.90;;;;;;5083369;28;20108;-70
2022/04/28 03:19:12;;;;;;;19.92;7.78;;;7.00;99.90;;;;;;5073155;28;20043;-69
2022/04/28 03:21:38;;;;;;;12.88;8.13;;;7.00;99.90;;;;;;5078848;28;21359;-69
2022/04/28 03:24:04;;;;;;;15.75;7.18;;;6.90;99.90;;;;;;5083124;28;20051;-69
2022/04/28 03:26:31;;;;;;;13.70;8.25;;;6.90;99.90;;;;;;5081831;28;20053;-69
2022/04/28 03:28:57;;;;;;;16.40;8.27;;;7.00;99.90;;;;;;5078303;28;20060;-69
2022/04/28 03:31:23;;;;;;;13.82;8.23;;;6.90;99.90;;;;;;5082267;28;20049;-70
2022/04/28 03:33:50;;;;;;;13.63;7.45;;;6.90;99.90;;;;;;5085425;28;20048;-69
2022/04/28 03:39:01;;;;;;;15.27;8.05;;;6.90;99.90;;;;;;5082782;28;20048;-68
2022/04/28 03:41:27;;;;;;;19.63;8.05;;;6.90;99.90;;;;;;5077180;28;20056;-69
2022/04/28 03:43:53;;;;;;;13.70;7.57;;;6.80;99.90;;;;;;5080224;28;20138;-69
2022/04/28 03:46:20;;;;;;;14.70;8.02;;;6.80;99.90;;;;;;5066340;28;20131;-68
2022/04/28 03:48:48;;;;;;;15.88;8.02;;;6.70;99.90;;;;;;5082272;28;20063;-70
2022/04/28 03:51:14;;;;;;;13.85;8.23;;;6.70;99.90;;;;;;5084033;28;20040;-69
2022/04/28 03:53:41;;;;;;;16.50;8.73;;;6.70;99.90;;;;;;5078434;28;20051;-69
2022/04/28 03:56:07;;;;;;;12.98;7.60;;;6.70;99.90;;;;;;5081281;28;20055;-70
2022/04/28 03:58:33;;;;;;;15.18;8.38;;;6.70;99.90;;;;;;5083020;28;20477;-70
2022/04/28 04:00:59;;;;;;;17.50;8.30;;;6.70;99.90;;;;;;5092617;28;20059;-68
2022/04/28 04:03:26;;;;;;;11.50;7.55;;;6.60;99.90;;;;;;5078288;28;20050;-70
2022/04/28 04:05:52;;;;;;;13.55;7.85;;;6.60;99.90;;;;;;5087317;28;20052;-70
2022/04/28 04:08:18;;;;;;;15.27;8.05;;;6.60;99.90;;;;;;5083250;28;20547;-70
2022/04/28 04:10:44;;;;;;;15.38;7.85;;;6.60;99.90;;;;;;5085359;28;20110;-71
2022/04/28 04:13:10;;;;;;;18.40;8.10;;;6.60;99.90;;;;;;5110150;27;20044;-69
2022/04/28 04:15:36;;;;;;;15.75;7.63;;;6.60;99.90;;;;;;5080774;28;20040;-69
2022/04/28 04:18:03;;;;;;;14.32;7.78;;;6.70;99.90;;;;;;5115964;27;20051;-69
2022/04/28 04:20:29;;;;;;;14.50;7.82;;;6.70;99.90;;;;;;5083388;28;20040;-70
2022/04/28 04:22:55;;;;;;;13.30;7.30;;;6.80;99.90;;;;;;5112038;27;20365;-70
2022/04/28 04:25:22;;;;;;;17.38;7.75;;;6.80;99.90;;;;;;5079902;28;20492;-69
2022/04/28 04:27:48;;;;;;;14.40;7.35;;;6.90;99.90;;;;;;5117853;27;20135;-70
2022/04/28 04:32:59;;;;;;;14.98;7.53;;;7.00;99.90;;;;;;5087335;28;20177;-69
2022/04/28 04:35:27;;;;;;;9.77;6.63;;;6.90;99.90;;;;;;5083260;28;20095;-69
2022/04/28 04:37:54;;;;;;;12.38;7.13;;;6.90;99.90;;;;;;5082232;28;20056;-70
2022/04/28 04:40:23;;;;;;;15.65;7.50;;;6.90;99.90;;;;;;5081762;28;20613;-70
2022/04/28 04:42:49;;;;;;;15.20;7.45;;;7.00;99.90;;;;;;5084352;28;20508;-69
2022/04/28 04:45:16;;;;;;;10.77;7.00;;;7.00;99.90;;;;;;5077369;28;20059;-69
2022/04/28 04:47:42;;;;;;;16.58;7.97;;;7.00;99.90;;;;;;5081989;28;20524;-70
2022/04/28 04:50:09;;;;;;;13.77;7.78;;;7.10;99.90;;;;;;5068865;28;20047;-70
2022/04/28 04:52:35;;;;;;;15.13;7.50;;;7.10;99.90;;;;;;5079119;28;20478;-69
2022/04/28 04:55:02;;;;;;;17.30;7.75;;;7.10;99.90;;;;;;5082947;28;20040;-69
2022/04/28 04:57:29;;;;;;;13.85;7.43;;;7.20;99.90;;;;;;5085072;28;20040;-69
2022/04/28 04:59:55;;;;;;;18.17;7.47;;;7.20;99.90;;;;;;5061750;28;20036;-71
2022/04/28 05:02:23;;;;;;;14.50;7.72;;;7.30;99.90;;;;;;5062682;28;20483;-70
2022/04/28 05:04:50;;;;;;;15.90;7.63;;;7.40;99.90;;;;;;5109575;27;20401;-69
2022/04/28 05:07:16;;;;;;;16.55;8.02;;;7.40;99.90;;;;;;5078540;28;20044;-69
2022/04/28 05:09:43;;;;;;;12.25;7.60;;;7.50;99.90;;;;;;5085703;28;20064;-69
2022/04/28 05:12:09;;;;;;;14.18;7.82;;;7.50;99.90;;;;;;5086604;28;20047;-70
2022/04/28 05:14:35;;;;;;;14.15;7.35;;;7.70;99.90;;;;;;5080890;28;21617;-71
2022/04/28 05:17:02;;;;;;;20.15;7.57;;;7.70;99.90;;;;;;5081930;28;20055;-69
2022/04/28 05:19:28;;;;;;;11.73;7.20;;;7.80;99.90;;;;;;5068641;28;20405;-69
2022/04/28 05:21:57;;;;;;;17.15;6.88;;;8.00;99.90;;;;;;5095636;28;20054;-69
2022/04/28 05:24:23;;;;;;;14.52;6.78;;;8.10;99.90;;;;;;5117831;27;20035;-70
2022/04/28 05:26:49;;;;;;;13.02;6.53;;;8.10;99.90;;;;;;5081895;28;21057;-69
2022/04/28 05:29:16;;;;;;;16.45;6.45;;;8.10;99.90;;;;;;5082017;28;20060;-69
2022/04/28 05:31:42;;;;;;;12.55;6.22;;;8.10;99.90;;;;;;5112895;27;20129;-70
2022/04/28 05:34:08;;;;;;;15.65;5.03;;;8.10;99.90;;;;;;5080323;28;20063;-69
2022/04/28 05:36:34;;;;;;;10.93;5.40;;;8.10;99.90;;;;;;5060661;28;20044;-70
2022/04/28 05:39:01;;;;;;;11.48;5.68;;;8.10;99.90;;;;;;5079959;28;20119;-69
2022/04/28 05:41:28;;;;;;;13.10;5.10;;;8.10;99.90;;;;;;5076156;28;20052;-69
2022/04/28 05:46:39;;;;;;;14.38;5.53;;;8.20;99.90;;;;;;5079777;28;20385;-70
2022/04/28 05:49:06;;;;;;;11.80;5.68;;;8.30;99.90;;;;;;5082709;28;20048;-70
2022/04/28 05:51:32;;;;;;;12.13;5.53;;;8.50;99.90;;;;;;5068289;28;20068;-69
2022/04/28 05:53:58;;;;;;;15.85;5.03;;;8.60;99.90;;;;;;5078645;28;20518;-70
2022/04/28 05:56:24;;;;;;;11.00;4.60;;;8.80;99.90;;;;;;5059312;28;20044;-69
2022/04/28 05:58:50;;;;;;;10.73;4.57;;;9.00;99.90;;;;;;5077012;28;20469;-70
2022/04/28 06:01:16;;;;;;;15.75;4.80;;;9.00;99.90;;;;;;5081173;28;20056;-70
2022/04/28 06:03:43;;;;;;;10.65;4.30;;;9.00;99.90;;;;;;5080968;28;20043;-69
2022/04/28 06:06:09;;;;;;;11.02;3.97;;;9.00;99.90;;;;;;5077675;28;20048;-70
2022/04/28 06:08:36;;;;;;;9.80;4.13;;;8.90;99.90;;;;;;5084079;28;21533;-70
2022/04/28 06:11:02;;;;;;;10.00;4.30;;;8.80;99.90;;;;;;5082830;28;20093;-69
2022/04/28 06:13:30;;;;;;;8.75;3.75;;;8.80;99.90;;;;;;5088231;28;20408;-69
2022/04/28 06:15:56;;;;;;;7.78;3.97;;;8.80;99.90;;;;;;5084460;28;20055;-68
2022/04/28 06:18:23;;;;;;;13.05;4.30;;;8.80;99.90;;;;;;5081271;28;20420;-69
2022/04/28 06:20:49;;;;;;;14.55;4.30;;;8.80;99.90;;;;;;5103339;28;20055;-69
2022/04/28 06:23:14;;;;;;;10.20;3.65;;;8.90;99.90;;;;;;5097796;28;20044;-70
2022/04/28 06:25:41;;;;;;;11.45;3.90;;;9.10;99.90;;;;;;5092651;28;20043;-70
2022/04/28 06:28:07;;;;;;;9.88;3.97;;;9.20;99.90;;;;;;5092509;28;20484;-71
2022/04/28 06:30:33;;;;;;;13.18;3.45;;;9.20;99.90;;;;;;5089636;28;20119;-70
2022/04/28 06:32:58;;;;;;;8.02;2.92;;;9.20;99.90;;;;;;5082142;28;20530;-71
2022/04/28 06:35:24;;;;;;;11.48;3.00;;;9.40;99.90;;;;;;5088887;28;20189;-70
2022/04/28 06:37:50;;;;;;;7.72;2.80;;;9.50;99.90;;;;;;5074551;28;20122;-70
2022/04/28 06:40:17;;;;;;;8.88;2.88;;;9.50;99.90;;;;;;5095540;28;20373;-70
2022/04/28 06:42:49;;;;;;;11.15;2.95;;;9.60;99.90;;;;;;5078568;28;20048;-71
2022/04/28 06:45:16;;;;;;;10.93;2.45;;;9.90;99.90;;;;;;5108612;27;20083;-71
2022/04/28 06:47:42;;;;;;;9.63;2.50;;;10.00;99.90;;;;;;5080110;28;20074;-72
2022/04/28 06:50:09;;;;;;;7.25;2.50;;;10.10;99.90;;;;;;5076936;28;21919;-71
2022/04/28 06:52:36;;;;;;;6.75;2.40;;;10.10;99.90;;;;;;5087184;28;20051;-70
2022/04/28 06:55:06;;;;;;;9.85;2.45;;;10.00;99.90;;;;;;5109770;27;20072;-71
2022/04/28 06:57:32;;;;;;;5.70;2.38;;;10.00;99.90;;;;;;5075374;28;20055;-70
2022/04/28 06:59:58;;;;;;;7.28;2.25;;;10.10;99.90;;;;;;5083700;28;20044;-71
2022/04/28 07:02:24;;;;;;;11.82;2.50;;;10.20;99.90;;;;;;5101098;28;20515;-71
2022/04/28 07:04:51;;;;;;;5.43;1.98;;;10.50;99.90;;;;;;5066367;28;20055;-70
2022/04/28 07:07:17;;;;;;;7.50;1.73;;;10.80;99.90;;;;;;5078242;28;20123;-70
2022/04/28 07:09:43;;;;;;;8.32;2.00;;;11.10;99.90;;;;;;5074160;28;20044;-70
2022/04/28 07:12:11;;;;;;;7.97;2.10;;;11.30;99.90;;;;;;5096131;28;20499;-70
2022/04/28 07:14:37;;;;;;;5.30;1.85;;;11.50;99.90;;;;;;5073756;28;20392;-70
2022/04/28 07:17:06;;;;;;;8.98;1.80;;;11.60;99.90;;;;;;5092016;28;20130;-71
2022/04/28 07:19:32;;;;;;;7.68;2.75;;;11.70;99.90;;;;;;5090572;28;20416;-71
2022/04/28 07:22:02;;;;;;;9.68;2.00;;;11.70;99.90;;;;;;5087635;28;20055;-71
2022/04/28 07:24:29;;;;;;;9.73;2.10;;;12.00;99.90;;;;;;5083332;28;20055;-70
2022/04/28 07:26:55;;;;;;;9.18;2.08;;;12.20;99.90;;;;;;5097464;28;20056;-71
2022/04/28 07:29:21;;;;;;;9.88;2.03;;;12.50;99.90;;;;;;5101781;28;20048;-71
2022/04/28 07:31:47;;;;;;;7.35;2.10;;;12.60;99.90;;;;;;5096060;28;20055;-70
2022/04/28 07:34:13;;;;;;;10.20;2.20;;;12.80;99.90;;;;;;5096334;28;20043;-71
2022/04/28 07:36:39;;;;;;;9.13;2.47;;;12.80;99.90;;;;;;5078946;28;20119;-70
2022/04/28 07:39:05;;;;;;;6.95;2.15;;;12.50;99.90;;;;;;5080572;28;20044;-71
2022/04/28 07:41:31;;;;;;;8.10;2.22;;;12.20;99.90;;;;;;5101892;28;20059;-70
2022/04/28 07:43:57;;;;;;;7.38;2.10;;;11.90;99.90;;;;;;5082803;28;20052;-71
2022/04/28 07:46:23;;;;;;;7.43;2.15;;;11.80;99.90;;;;;;5087702;28;20055;-70
2022/04/28 07:48:49;;;;;;;7.95;2.10;;;12.10;99.90;;;;;;5086366;28;20050;-71
2022/04/28 07:51:15;;;;;;;9.00;2.60;;;11.90;99.90;;;;;;5091193;28;20059;-70
2022/04/28 07:53:41;;;;;;;7.75;2.35;;;11.70;99.90;;;;;;5090439;28;20052;-71
2022/04/28 07:56:17;;;;;;;8.85;2.40;;;11.50;99.90;;;;;;5091685;28;20135;-71
2022/04/28 07:58:44;;;;;;;9.68;2.50;;;11.30;99.90;;;;;;5094054;28;20043;-70
2022/04/28 08:01:11;;;;;;;5.97;2.63;;;11.20;99.90;;;;;;5123180;27;20055;-70
2022/04/28 08:03:38;;;;;;;7.43;2.72;;;11.10;99.90;;;;;;5093850;28;20048;-71
2022/04/28 08:06:05;;;;;;;8.13;2.88;;;11.10;99.90;;;;;;5094305;28;20048;-71
2022/04/28 08:08:33;;;;;;;9.57;2.95;;;11.10;99.90;;;;;;5089515;28;20059;-71
2022/04/28 08:11:00;;;;;;;7.68;2.78;;;11.20;99.90;;;;;;5093081;28;20047;-71
2022/04/28 08:13:26;;;;;;;10.65;2.83;;;11.40;99.90;;;;;;5095001;28;20071;-70
2022/04/28 08:15:53;;;;;;;9.85;2.80;;;11.60;99.90;;;;;;5067185;28;20102;-71
2022/04/28 08:18:19;;;;;;;10.13;2.67;;;11.70;99.90;;;;;;5077705;28;20054;-70
2022/04/28 08:20:45;;;;;;;5.80;2.50;;;11.90;99.90;;;;;;5092949;28;20138;-71
2022/04/28 08:23:11;;;;;;;6.40;2.22;;;12.00;99.90;;;;;;5087366;28;20037;-70
2022/04/28 08:25:37;;;;;;;6.03;2.40;;;12.20;99.90;;;;;;5116513;27;20052;-72
2022/04/28 08:28:04;;;;;;;8.88;2.60;;;12.20;99.90;;;;;;5094353;28;20056;-71
2022/04/28 08:30:30;;;;;;;11.00;3.15;;;12.10;99.90;;;;;;5074488;28;20104;-73
2022/04/28 08:32:56;;;;;;;12.10;2.75;;;12.20;99.90;;;;;;5084085;28;20488;-76
2022/04/28 08:35:22;;;;;;;8.55;2.45;;;12.20;99.90;;;;;;5069314;28;20043;-73
2022/04/28 08:37:51;;;;;;;8.68;2.60;;;12.40;99.90;;;;;;5080620;28;20046;-71
2022/04/28 08:40:17;;;;;;;8.75;2.40;;;12.60;99.90;;;;;;5085727;28;20044;-70
2022/04/28 08:42:45;;;;;;;8.60;2.13;;;12.70;99.90;;;;;;5102149;28;20054;-70
2022/04/28 08:45:15;;;;;;;7.45;2.58;;;12.60;99.90;;;;;;5100892;28;20110;-71
2022/04/28 08:47:42;;;;;;;10.63;2.70;;;12.60;99.90;;;;;;5100553;28;20062;-70
2022/04/28 08:50:08;;;;;;;9.25;2.55;;;12.70;99.90;;;;;;5099378;28;20050;-72
2022/04/28 08:52:36;;;;;;;10.23;3.10;;;13.00;99.90;;;;;;5082182;28;20112;-70
2022/04/28 08:55:03;;;;;;;11.90;2.58;;;13.50;99.90;;;;;;5101058;28;20428;-70
2022/04/28 08:57:31;;;;;;;8.88;2.60;;;13.50;99.90;;;;;;5092619;28;20040;-69
2022/04/28 08:59:57;;;;;;;10.30;3.08;;;13.50;99.90;;;;;;5077198;28;20104;-70
2022/04/28 09:02:29;;;;;;;7.93;2.53;;;13.50;99.90;;;;;;5091927;28;20032;-71
2022/04/28 09:05:04;;;;;;;10.20;3.08;;;13.50;99.90;;;;;;5080372;28;20043;-71
2022/04/28 09:07:39;;;;;;;9.80;3.15;;;13.70;99.90;;;;;;5099730;28;20052;-73
2022/04/28 09:10:26;;;;;;;7.28;2.60;;;14.00;99.90;;;;;;5101089;28;20130;-70
2022/04/28 09:15:54;;;;;;;7.43;2.90;;;13.90;99.90;;;;;;5093796;28;20135;-71
2022/04/28 09:18:21;;;;;;;7.95;2.53;;;14.10;99.90;;;;;;5101361;28;20055;-70
2022/04/28 09:20:49;;;;;;;6.75;2.72;;;14.00;99.90;;;;;;5083222;28;20472;-70
2022/04/28 09:23:17;;;;;;;10.52;3.22;;;14.10;99.90;;;;;;5079497;28;20044;-71
2022/04/28 09:25:44;;;;;;;9.98;2.78;;;14.00;99.90;;;;;;5121904;27;20792;-71
2022/04/28 09:28:11;;;;;;;8.77;2.95;;;14.10;99.90;;;;;;5075859;28;20042;-70
2022/04/28 09:30:49;;;;;;;9.32;2.90;;;14.10;99.90;;;;;;5092654;28;20052;-73
2022/04/28 09:33:22;;;;;;;11.23;2.85;;;13.80;99.90;;;;;;5092055;28;20052;-71
2022/04/28 09:35:53;;;;;;;8.98;2.72;;;14.00;99.90;;;;;;5092094;28;20151;-70
2022/04/28 09:38:20;;;;;;;;;;;14.00;99.90;;;;;;5076027;28;20048;-71
2022/04/28 09:43:32;;;;;;;11.05;4.10;;;14.10;99.90;;;;;;5091592;28;20048;-71
2022/04/28 09:46:00;;;;;;;6.35;3.17;;;14.10;99.90;;;;;;5085714;28;20070;-73
2022/04/28 09:48:30;;;;;;;13.25;3.75;;;14.20;99.90;;;;;;5075179;28;20040;-72
2022/04/28 09:51:09;;;;;;;11.95;3.75;;;14.40;99.90;;;;;;5100836;28;20043;-72
2022/04/28 09:53:39;;;;;;;11.63;3.60;;;14.50;99.90;;;;;;5074778;28;20039;-72
2022/04/28 09:56:06;;;;;;;12.70;3.90;;;14.60;99.90;;;;;;5096991;28;20047;-73
2022/04/28 09:58:33;;;;;;;11.20;3.97;;;14.60;99.90;;;;;;5092078;28;20047;-71
2022/04/28 10:01:02;;;;;;;11.85;3.88;;;14.80;99.90;;;;;;5092892;28;20044;-71
2022/04/28 10:03:37;;;;;;;7.10;3.67;;;14.90;99.90;;;;;;5084600;28;20040;-70
2022/04/28 10:06:03;;;;;;;10.18;3.85;;;14.90;99.90;;;;;;5082374;28;20044;-70
2022/04/28 10:08:35;;;;;;;8.73;4.03;;;15.00;99.90;;;;;;5067530;28;20058;-70
2022/04/28 10:11:05;;;;;;;10.30;3.90;;;15.10;99.90;;;;;;5082062;28;20049;-70
2022/04/28 10:13:32;;;;;;;9.40;4.38;;;15.10;99.90;;;;;;5092130;28;20581;-70
2022/04/28 10:16:01;;;;;;;13.10;4.45;;;15.00;99.90;;;;;;5073590;28;20043;-71
2022/04/28 10:18:38;;;;;;;7.93;4.10;;;15.00;99.90;;;;;;5076471;28;20050;-70
2022/04/28 10:21:06;;;;;;;9.80;4.55;;;15.20;99.90;;;;;;5089509;28;20040;-70
2022/04/28 10:35:03;;;;;;;11.18;3.75;;;15.30;99.90;;;;;;5085028;28;20095;-70
2022/04/28 10:37:33;;;;;;;10.55;3.95;;;15.40;97.00;;;;;;5070699;28;20059;-69
2022/04/28 10:40:01;;;;;;;8.85;3.40;;;15.50;99.90;;;;;;5066259;28;20049;-69
2022/04/28 10:42:26;;;;;;;12.57;3.80;;;15.50;99.90;;;;;;5033471;28;20061;-70
2022/04/28 10:44:54;;;;;;;9.95;3.63;;;15.40;99.90;;;;;;5057539;28;20095;-70
2022/04/28 10:47:37;;;;;;;7.95;3.00;;;15.50;99.90;;;;;;5074573;28;20037;-71
2022/04/28 10:50:20;;;;;;;7.53;3.65;;;15.50;99.90;;;;;;5057329;28;20048;-75
2022/04/28 10:52:54;;;;;;;9.48;3.95;;;15.50;99.90;;;;;;5058322;28;20049;-74
2022/04/28 10:55:21;;;;;;;9.52;3.38;;;15.50;99.90;;;;;;5059289;28;20036;-73
2022/04/28 10:57:47;;;;;;;7.82;3.13;;;15.50;99.90;;;;;;5047174;28;20071;-71
2022/04/28 11:00:35;;;;;;;10.90;3.35;;;15.70;99.90;;;;;;5034036;28;20397;-69
2022/04/28 11:03:02;;;;;;;9.27;3.03;;;15.90;96.30;;;;;;5061260;28;20040;-69
2022/04/28 11:05:35;;;;;;;6.75;2.95;;;16.00;99.90;;;;;;5064824;28;20048;-70
2022/04/28 11:08:01;;;;;;;12.65;3.30;;;16.10;96.60;;;;;;5074072;28;20080;-68
2022/04/28 11:10:28;;;;;;;9.10;2.85;;;16.20;99.90;;;;;;5052444;28;20139;-69
2022/04/28 11:12:54;;;;;;;10.20;3.45;;;16.20;99.90;;;;;;5037214;28;20048;-70
2022/04/28 11:15:21;;;;;;;8.95;3.00;;;16.10;98.20;;;;;;5060609;28;20045;-69
2022/04/28 11:17:47;;;;;;;12.10;3.30;;;16.20;98.10;;;;;;5045297;28;20047;-68
2022/04/28 11:20:21;;;;;;;11.82;3.40;;;16.10;96.70;;;;;;5041249;28;20442;-70
2022/04/28 11:22:52;;;;;;;9.73;3.15;;;16.00;86.50;;;;;;5040326;28;20060;-69
2022/04/28 11:25:20;;;;;;;9.93;2.92;;;16.10;94.30;;;;;;5055315;28;20502;-69
2022/04/28 11:27:47;;;;;;;8.82;3.00;;;16.30;94.70;;;;;;5026048;28;20128;-69
2022/04/28 11:30:25;;;;;;;9.80;3.17;;;16.50;94.60;;;;;;5058646;28;21758;-69
2022/04/28 11:32:59;;;;;;;13.02;3.17;;;16.30;92.40;;;;;;5061453;28;20040;-69
2022/04/28 11:35:39;;;;;;;9.80;2.58;;;15.90;86.70;;;;;;5055442;28;20493;-69
2022/04/28 11:38:07;;;;;;;9.13;3.28;;;15.60;97.50;;;;;;5055693;28;20075;-69
2022/04/28 11:40:35;;;;;;;11.88;3.65;;;15.40;99.90;;;;;;5059446;28;20044;-69
2022/04/28 11:43:03;;;;;;;14.73;2.97;;;15.40;99.90;;;;;;5055918;28;20057;-68
2022/04/28 11:45:31;;;;;;;7.65;3.10;;;15.50;99.90;;;;;;5059055;28;20056;-68
2022/04/28 11:48:00;;;;;;;8.32;3.50;;;15.40;99.90;;;;;;5039069;28;20045;-69
2022/04/28 11:50:30;;;;;;;16.38;3.40;;;15.50;99.90;;;;;;5056073;28;20052;-69
2022/04/28 11:53:12;;;;;;;10.70;3.25;;;15.60;99.90;;;;;;5050949;28;20545;-68
2022/04/28 11:55:40;;;;;;;11.73;2.92;;;15.40;99.90;;;;;;5050345;28;20068;-70
2022/04/28 11:58:08;;;;;;;10.40;2.95;;;15.60;99.90;;;;;;5050357;28;20049;-70
2022/04/28 12:00:38;;;;;;;9.40;2.80;;;15.30;99.90;;;;;;5056779;28;20499;-70
2022/04/28 12:03:04;;;;;;;9.55;2.92;;;15.30;99.90;;;;;;5056438;28;20136;-70
2022/04/28 12:05:32;;;;;;;10.23;3.22;;;15.30;99.90;;;;;;5056021;28;20037;-69
2022/04/28 12:07:59;;;;;;;8.95;3.03;;;15.30;99.90;;;;;;5044142;28;20079;-70
2022/04/28 12:16:16;;;;;;;7.70;3.13;;;15.40;99.90;;;;;;5055148;28;20053;-69
2022/04/28 12:21:37;;;;;;;13.05;3.60;;;15.70;99.40;;;;;;5072993;28;20053;-69
2022/04/28 12:24:23;;;;;;;9.55;3.38;;;16.00;93.40;;;;;;5059803;28;20044;-69
2022/04/28 12:26:49;;;;;;;11.82;3.08;;;16.00;92.40;;;;;;5084230;28;20115;-68
2022/04/28 12:29:19;;;;;;;7.10;2.65;;;16.10;94.30;;;;;;5057368;28;20116;-69
2022/04/28 12:31:47;;;;;;;7.63;2.50;;;15.90;95.20;;;;;;5045677;28;20083;-69
2022/04/28 12:34:31;;;;;;;8.95;3.30;;;16.00;98.60;;;;;;5060145;28;20123;-68
2022/04/28 12:36:59;;;;;;;8.18;3.40;;;16.30;90.60;;;;;;5060826;28;20760;-69
2022/04/28 12:39:26;;;;;;;11.13;2.75;;;16.50;92.30;;;;;;5038711;28;20106;-69
2022/04/28 12:41:52;;;;;;;9.45;2.78;;;16.60;90.90;;;;;;5059342;28;20107;-71
2022/04/28 12:44:20;;;;;;;9.68;3.20;;;16.20;81.50;;;;;;5061854;28;20040;-69
2022/04/28 12:46:46;;;;;;;10.30;2.80;;;16.20;88.10;;;;;;5056730;28;20060;-69
2022/04/28 12:49:16;;;;;;;11.13;2.90;;;16.30;93.10;;;;;;5054261;28;20040;-70
2022/04/28 12:51:52;;;;;;;9.95;2.80;;;16.30;93.70;;;;;;5053054;28;20053;-70
2022/04/28 12:54:20;;;;;;;10.48;3.05;;;16.50;83.90;;;;;;5053101;28;20049;-69
2022/04/28 12:56:57;;;;;;;7.75;3.20;;;17.50;91.50;;;;;;5053070;28;20485;-70
2022/04/28 12:59:27;;;;;;;8.02;2.85;;;18.20;74.20;;;;;;5052540;28;20099;-70
2022/04/28 13:01:56;;;;;;;7.32;2.70;;;18.40;78.60;;;;;;5067607;28;20045;-69
2022/04/28 13:04:23;;;;;;;9.65;2.55;;;17.80;86.20;;;;;;5039059;28;20044;-71
2022/04/28 13:06:50;;;;;;;7.95;3.05;;;18.50;85.10;;;;;;5040833;28;20068;-69
2022/04/28 13:09:17;;;;;;;9.75;2.60;;;19.70;74.40;;;;;;5061694;28;20461;-71
2022/04/28 13:11:45;;;;;;;9.32;2.85;;;19.90;70.20;;;;;;5062760;28;20043;-70
2022/04/28 13:14:14;;;;;;;8.55;2.80;;;20.40;68.00;;;;;;5058132;28;20099;-70
2022/04/28 13:16:40;;;;;;;10.25;2.97;;;20.60;68.70;;;;;;5057943;28;20043;-70
2022/04/28 13:19:08;;;;;;;7.78;2.72;;;20.70;68.20;;;;;;5063755;28;20102;-70
2022/04/28 13:21:36;;;;;;;7.07;2.40;;;20.70;65.50;;;;;;5060636;28;20056;-69
2022/04/28 13:24:02;;;;;;;5.65;2.40;;;20.40;63.50;;;;;;5061689;28;20542;-70
2022/04/28 13:26:29;;;;;;;8.15;2.85;;;20.40;64.10;;;;;;5063412;28;20063;-70
2022/04/28 13:28:56;;;;;;;8.50;3.08;;;20.70;62.20;;;;;;5059122;28;20040;-70
2022/04/28 13:31:22;;;;;;;6.70;2.70;;;20.80;62.10;;;;;;5060209;28;20041;-69